sensor_id;sensor_type;location;lat;lon;timestamp;temperature;humidity
71082;SHT31;58740;50.672;18.690;2023-08-06T00:01:42;19.18;84.02
71082;SHT31;58740;50.672;18.690;2023-08-06T00:04:10;19.22;83.80
71082;SHT31;58740;50.672;18.690;2023-08-06T00:06:37;19.25;83.84
71082;SHT31;58740;50.672;18.690;2023-08-06T00:09:05;19.26;83.91
71082;SHT31;58740;50.672;18.690;2023-08-06T00:11:33;19.21;84.29
71082;SHT31;58740;50.672;18.690;2023-08-06T00:14:01;19.18;84.22
71082;SHT31;58740;50.672;18.690;2023-08-06T00:16:28;19.18;84.26
71082;SHT31;58740;50.672;18.690;2023-08-06T00:18:56;19.19;84.21
71082;SHT31;58740;50.672;18.690;2023-08-06T00:21:24;19.20;84.23
71082;SHT31;58740;50.672;18.690;2023-08-06T00:23:51;19.20;84.24
71082;SHT31;58740;50.672;18.690;2023-08-06T00:26:19;19.19;84.40
71082;SHT31;58740;50.672;18.690;2023-08-06T00:28:47;19.19;84.23
71082;SHT31;58740;50.672;18.690;2023-08-06T00:31:15;19.23;84.12
71082;SHT31;58740;50.672;18.690;2023-08-06T00:33:43;19.25;84.15
71082;SHT31;58740;50.672;18.690;2023-08-06T00:36:10;19.23;84.15
71082;SHT31;58740;50.672;18.690;2023-08-06T00:38:38;19.27;84.09
71082;SHT31;58740;50.672;18.690;2023-08-06T00:41:06;19.29;83.97
71082;SHT31;58740;50.672;18.690;2023-08-06T00:43:34;19.30;84.15
71082;SHT31;58740;50.672;18.690;2023-08-06T00:46:02;19.25;84.33
71082;SHT31;58740;50.672;18.690;2023-08-06T00:48:29;19.18;84.58
71082;SHT31;58740;50.672;18.690;2023-08-06T00:50:58;19.16;84.50
71082;SHT31;58740;50.672;18.690;2023-08-06T00:53:25;19.17;84.49
71082;SHT31;58740;50.672;18.690;2023-08-06T00:55:53;19.14;84.76
71082;SHT31;58740;50.672;18.690;2023-08-06T00:58:21;19.12;84.73
71082;SHT31;58740;50.672;18.690;2023-08-06T01:00:49;19.15;84.62
71082;SHT31;58740;50.672;18.690;2023-08-06T01:03:17;19.14;84.67
71082;SHT31;58740;50.672;18.690;2023-08-06T01:05:45;19.15;84.55
71082;SHT31;58740;50.672;18.690;2023-08-06T01:08:23;19.19;84.57
71082;SHT31;58740;50.672;18.690;2023-08-06T01:13:55;19.14;84.80
71082;SHT31;58740;50.672;18.690;2023-08-06T01:16:39;19.14;84.74
71082;SHT31;58740;50.672;18.690;2023-08-06T01:19:17;19.12;84.81
71082;SHT31;58740;50.672;18.690;2023-08-06T01:21:46;19.10;84.99
71082;SHT31;58740;50.672;18.690;2023-08-06T01:24:13;19.07;85.03
71082;SHT31;58740;50.672;18.690;2023-08-06T01:26:49;19.08;84.91
71082;SHT31;58740;50.672;18.690;2023-08-06T01:29:38;19.10;84.99
71082;SHT31;58740;50.672;18.690;2023-08-06T01:32:14;19.13;84.77
71082;SHT31;58740;50.672;18.690;2023-08-06T01:34:44;19.18;84.62
71082;SHT31;58740;50.672;18.690;2023-08-06T01:37:14;19.20;84.66
71082;SHT31;58740;50.672;18.690;2023-08-06T01:39:42;19.20;84.75
71082;SHT31;58740;50.672;18.690;2023-08-06T01:42:11;19.18;84.72
71082;SHT31;58740;50.672;18.690;2023-08-06T01:44:38;19.20;84.74
71082;SHT31;58740;50.672;18.690;2023-08-06T01:47:06;19.20;84.78
71082;SHT31;58740;50.672;18.690;2023-08-06T01:49:34;19.20;84.63
71082;SHT31;58740;50.672;18.690;2023-08-06T01:52:02;19.20;84.70
71082;SHT31;58740;50.672;18.690;2023-08-06T01:54:29;19.20;84.60
71082;SHT31;58740;50.672;18.690;2023-08-06T01:56:57;19.21;84.69
71082;SHT31;58740;50.672;18.690;2023-08-06T01:59:25;19.22;84.62
71082;SHT31;58740;50.672;18.690;2023-08-06T02:01:53;19.20;84.66
71082;SHT31;58740;50.672;18.690;2023-08-06T02:04:21;19.20;84.59
71082;SHT31;58740;50.672;18.690;2023-08-06T02:06:49;19.21;84.58
71082;SHT31;58740;50.672;18.690;2023-08-06T02:09:17;19.21;84.60
71082;SHT31;58740;50.672;18.690;2023-08-06T02:11:44;19.22;84.54
71082;SHT31;58740;50.672;18.690;2023-08-06T02:14:12;19.21;84.67
71082;SHT31;58740;50.672;18.690;2023-08-06T02:16:40;19.22;84.59
71082;SHT31;58740;50.672;18.690;2023-08-06T02:19:08;19.20;84.68
71082;SHT31;58740;50.672;18.690;2023-08-06T02:21:35;19.18;84.73
71082;SHT31;58740;50.672;18.690;2023-08-06T02:24:03;19.15;84.80
71082;SHT31;58740;50.672;18.690;2023-08-06T02:26:31;19.15;84.83
71082;SHT31;58740;50.672;18.690;2023-08-06T02:28:59;19.18;84.55
71082;SHT31;58740;50.672;18.690;2023-08-06T02:31:26;19.23;84.42
71082;SHT31;58740;50.672;18.690;2023-08-06T02:33:54;19.25;84.51
71082;SHT31;58740;50.672;18.690;2023-08-06T02:36:22;19.24;84.54
71082;SHT31;58740;50.672;18.690;2023-08-06T02:38:50;19.24;84.57
71082;SHT31;58740;50.672;18.690;2023-08-06T02:41:18;19.25;84.46
71082;SHT31;58740;50.672;18.690;2023-08-06T02:43:45;19.27;84.54
71082;SHT31;58740;50.672;18.690;2023-08-06T02:46:13;19.26;84.45
71082;SHT31;58740;50.672;18.690;2023-08-06T02:48:41;19.29;84.41
71082;SHT31;58740;50.672;18.690;2023-08-06T02:51:08;19.31;84.31
71082;SHT31;58740;50.672;18.690;2023-08-06T02:53:36;19.31;84.31
71082;SHT31;58740;50.672;18.690;2023-08-06T02:56:04;19.31;84.30
71082;SHT31;58740;50.672;18.690;2023-08-06T02:58:31;19.33;84.25
71082;SHT31;58740;50.672;18.690;2023-08-06T03:01:03;19.33;84.16
71082;SHT31;58740;50.672;18.690;2023-08-06T03:03:34;19.36;84.19
71082;SHT31;58740;50.672;18.690;2023-08-06T03:06:02;19.36;84.24
71082;SHT31;58740;50.672;18.690;2023-08-06T03:08:30;19.35;84.38
71082;SHT31;58740;50.672;18.690;2023-08-06T03:10:58;19.34;84.42
71082;SHT31;58740;50.672;18.690;2023-08-06T03:13:25;19.35;84.47
71082;SHT31;58740;50.672;18.690;2023-08-06T03:15:57;19.34;84.38
71082;SHT31;58740;50.672;18.690;2023-08-06T03:18:26;19.36;84.49
71082;SHT31;58740;50.672;18.690;2023-08-06T03:20:54;19.35;84.61
71082;SHT31;58740;50.672;18.690;2023-08-06T03:23:22;19.36;84.63
71082;SHT31;58740;50.672;18.690;2023-08-06T03:25:50;19.34;84.68
71082;SHT31;58740;50.672;18.690;2023-08-06T03:28:18;19.37;84.47
71082;SHT31;58740;50.672;18.690;2023-08-06T03:30:45;19.40;84.44
71082;SHT31;58740;50.672;18.690;2023-08-06T03:33:13;19.41;84.44
71082;SHT31;58740;50.672;18.690;2023-08-06T03:35:41;19.44;84.29
71082;SHT31;58740;50.672;18.690;2023-08-06T03:38:09;19.46;84.41
71082;SHT31;58740;50.672;18.690;2023-08-06T03:40:37;19.47;84.45
71082;SHT31;58740;50.672;18.690;2023-08-06T03:43:04;19.46;84.49
71082;SHT31;58740;50.672;18.690;2023-08-06T03:45:32;19.46;84.47
71082;SHT31;58740;50.672;18.690;2023-08-06T03:48:00;19.46;84.50
71082;SHT31;58740;50.672;18.690;2023-08-06T03:50:27;19.47;84.55
71082;SHT31;58740;50.672;18.690;2023-08-06T03:52:55;19.47;84.44
71082;SHT31;58740;50.672;18.690;2023-08-06T03:55:23;19.49;84.30
71082;SHT31;58740;50.672;18.690;2023-08-06T03:57:51;19.50;84.33
71082;SHT31;58740;50.672;18.690;2023-08-06T04:00:18;19.53;84.37
71082;SHT31;58740;50.672;18.690;2023-08-06T04:02:46;19.53;84.12
71082;SHT31;58740;50.672;18.690;2023-08-06T04:05:15;19.56;83.98
71082;SHT31;58740;50.672;18.690;2023-08-06T04:07:44;19.57;84.26
71082;SHT31;58740;50.672;18.690;2023-08-06T04:10:12;19.56;84.26
71082;SHT31;58740;50.672;18.690;2023-08-06T04:12:39;19.56;84.19
71082;SHT31;58740;50.672;18.690;2023-08-06T04:15:07;19.57;84.34
71082;SHT31;58740;50.672;18.690;2023-08-06T04:17:35;19.57;84.47
71082;SHT31;58740;50.672;18.690;2023-08-06T04:20:03;19.57;84.24
71082;SHT31;58740;50.672;18.690;2023-08-06T04:22:32;19.60;83.93
71082;SHT31;58740;50.672;18.690;2023-08-06T04:25:00;19.63;84.01
71082;SHT31;58740;50.672;18.690;2023-08-06T04:27:27;19.64;83.99
71082;SHT31;58740;50.672;18.690;2023-08-06T04:29:55;19.64;84.09
71082;SHT31;58740;50.672;18.690;2023-08-06T04:32:23;19.62;84.24
71082;SHT31;58740;50.672;18.690;2023-08-06T04:34:52;19.61;84.34
71082;SHT31;58740;50.672;18.690;2023-08-06T04:37:19;19.59;84.38
71082;SHT31;58740;50.672;18.690;2023-08-06T04:39:47;19.60;84.13
71082;SHT31;58740;50.672;18.690;2023-08-06T04:42:15;19.59;84.28
71082;SHT31;58740;50.672;18.690;2023-08-06T04:44:43;19.58;84.49
71082;SHT31;58740;50.672;18.690;2023-08-06T04:47:10;19.56;84.59
71082;SHT31;58740;50.672;18.690;2023-08-06T04:49:38;19.53;84.63
71082;SHT31;58740;50.672;18.690;2023-08-06T04:52:06;19.52;84.71
71082;SHT31;58740;50.672;18.690;2023-08-06T04:54:34;19.53;84.76
71082;SHT31;58740;50.672;18.690;2023-08-06T04:57:01;19.54;84.72
71082;SHT31;58740;50.672;18.690;2023-08-06T04:59:29;19.55;84.75
71082;SHT31;58740;50.672;18.690;2023-08-06T05:01:57;19.55;84.68
71082;SHT31;58740;50.672;18.690;2023-08-06T05:04:25;19.57;84.55
71082;SHT31;58740;50.672;18.690;2023-08-06T05:06:52;19.59;84.43
71082;SHT31;58740;50.672;18.690;2023-08-06T05:09:20;19.61;84.12
71082;SHT31;58740;50.672;18.690;2023-08-06T05:11:48;19.64;84.20
71082;SHT31;58740;50.672;18.690;2023-08-06T05:14:16;19.65;84.29
71082;SHT31;58740;50.672;18.690;2023-08-06T05:16:44;19.65;84.47
71082;SHT31;58740;50.672;18.690;2023-08-06T05:19:12;19.63;84.59
71082;SHT31;58740;50.672;18.690;2023-08-06T05:21:40;19.62;84.61
71082;SHT31;58740;50.672;18.690;2023-08-06T05:24:07;19.62;84.63
71082;SHT31;58740;50.672;18.690;2023-08-06T05:26:35;19.62;84.78
71082;SHT31;58740;50.672;18.690;2023-08-06T05:29:03;19.61;84.73
71082;SHT31;58740;50.672;18.690;2023-08-06T05:31:31;19.62;84.79
71082;SHT31;58740;50.672;18.690;2023-08-06T05:33:58;19.61;84.76
71082;SHT31;58740;50.672;18.690;2023-08-06T05:36:26;19.61;84.74
71082;SHT31;58740;50.672;18.690;2023-08-06T05:38:56;19.61;84.74
71082;SHT31;58740;50.672;18.690;2023-08-06T05:41:24;19.60;84.63
71082;SHT31;58740;50.672;18.690;2023-08-06T05:43:51;19.55;84.58
71082;SHT31;58740;50.672;18.690;2023-08-06T05:46:19;19.55;84.52
71082;SHT31;58740;50.672;18.690;2023-08-06T05:48:47;19.52;84.50
71082;SHT31;58740;50.672;18.690;2023-08-06T05:51:14;19.50;84.43
71082;SHT31;58740;50.672;18.690;2023-08-06T05:53:43;19.48;84.41
71082;SHT31;58740;50.672;18.690;2023-08-06T05:56:11;19.45;84.40
71082;SHT31;58740;50.672;18.690;2023-08-06T05:58:38;19.43;84.37
71082;SHT31;58740;50.672;18.690;2023-08-06T06:01:06;19.41;84.29
71082;SHT31;58740;50.672;18.690;2023-08-06T06:03:34;19.37;84.13
71082;SHT31;58740;50.672;18.690;2023-08-06T06:06:01;19.34;84.19
71082;SHT31;58740;50.672;18.690;2023-08-06T06:08:29;19.31;84.18
71082;SHT31;58740;50.672;18.690;2023-08-06T06:10:57;19.28;84.18
71082;SHT31;58740;50.672;18.690;2023-08-06T06:13:25;19.24;84.10
71082;SHT31;58740;50.672;18.690;2023-08-06T06:15:56;19.19;84.10
71082;SHT31;58740;50.672;18.690;2023-08-06T06:18:24;19.15;84.08
71082;SHT31;58740;50.672;18.690;2023-08-06T06:20:52;19.10;84.06
71082;SHT31;58740;50.672;18.690;2023-08-06T06:23:19;19.07;84.16
71082;SHT31;58740;50.672;18.690;2023-08-06T06:25:50;19.05;84.11
71082;SHT31;58740;50.672;18.690;2023-08-06T06:28:21;19.01;84.09
71082;SHT31;58740;50.672;18.690;2023-08-06T06:30:49;18.99;84.06
71082;SHT31;58740;50.672;18.690;2023-08-06T06:33:17;18.99;83.88
71082;SHT31;58740;50.672;18.690;2023-08-06T06:35:45;18.94;83.72
71082;SHT31;58740;50.672;18.690;2023-08-06T06:38:12;18.87;83.83
71082;SHT31;58740;50.672;18.690;2023-08-06T06:40:40;18.83;83.82
71082;SHT31;58740;50.672;18.690;2023-08-06T06:43:07;18.82;83.90
71082;SHT31;58740;50.672;18.690;2023-08-06T06:45:35;18.79;83.86
71082;SHT31;58740;50.672;18.690;2023-08-06T06:48:03;18.77;83.84
71082;SHT31;58740;50.672;18.690;2023-08-06T06:50:31;18.75;83.82
71082;SHT31;58740;50.672;18.690;2023-08-06T06:52:59;18.71;83.66
71082;SHT31;58740;50.672;18.690;2023-08-06T06:55:26;18.66;83.77
71082;SHT31;58740;50.672;18.690;2023-08-06T06:57:55;18.64;83.80
71082;SHT31;58740;50.672;18.690;2023-08-06T07:00:22;18.62;83.74
71082;SHT31;58740;50.672;18.690;2023-08-06T07:02:50;18.61;83.78
71082;SHT31;58740;50.672;18.690;2023-08-06T07:05:18;18.58;83.72
71082;SHT31;58740;50.672;18.690;2023-08-06T07:07:46;18.56;83.76
71082;SHT31;58740;50.672;18.690;2023-08-06T07:10:13;18.56;83.80
71082;SHT31;58740;50.672;18.690;2023-08-06T07:12:41;18.53;83.70
71082;SHT31;58740;50.672;18.690;2023-08-06T07:15:09;18.49;83.59
71082;SHT31;58740;50.672;18.690;2023-08-06T07:17:37;18.46;83.67
71082;SHT31;58740;50.672;18.690;2023-08-06T07:20:05;18.43;83.57
71082;SHT31;58740;50.672;18.690;2023-08-06T07:22:34;18.41;83.49
71082;SHT31;58740;50.672;18.690;2023-08-06T07:25:03;18.38;83.42
71082;SHT31;58740;50.672;18.690;2023-08-06T07:27:31;18.33;83.23
71082;SHT31;58740;50.672;18.690;2023-08-06T07:30:00;18.25;83.22
71082;SHT31;58740;50.672;18.690;2023-08-06T07:32:28;18.18;83.37
71082;SHT31;58740;50.672;18.690;2023-08-06T07:34:56;18.12;83.46
71082;SHT31;58740;50.672;18.690;2023-08-06T07:37:27;18.08;83.44
71082;SHT31;58740;50.672;18.690;2023-08-06T07:39:57;18.03;83.44
71082;SHT31;58740;50.672;18.690;2023-08-06T07:42:25;18.02;83.50
71082;SHT31;58740;50.672;18.690;2023-08-06T07:44:57;17.99;83.44
71082;SHT31;58740;50.672;18.690;2023-08-06T07:47:26;17.95;83.44
71082;SHT31;58740;50.672;18.690;2023-08-06T07:49:53;17.92;83.47
71082;SHT31;58740;50.672;18.690;2023-08-06T07:52:21;17.90;83.46
71082;SHT31;58740;50.672;18.690;2023-08-06T07:54:49;17.88;83.51
71082;SHT31;58740;50.672;18.690;2023-08-06T07:57:17;17.85;83.41
71082;SHT31;58740;50.672;18.690;2023-08-06T07:59:44;17.85;83.53
71082;SHT31;58740;50.672;18.690;2023-08-06T08:02:12;17.85;83.50
71082;SHT31;58740;50.672;18.690;2023-08-06T08:04:40;17.82;83.23
71082;SHT31;58740;50.672;18.690;2023-08-06T08:07:09;17.78;83.25
71082;SHT31;58740;50.672;18.690;2023-08-06T08:09:38;17.74;83.26
71082;SHT31;58740;50.672;18.690;2023-08-06T08:12:05;17.71;83.01
71082;SHT31;58740;50.672;18.690;2023-08-06T08:14:34;17.67;82.82
71082;SHT31;58740;50.672;18.690;2023-08-06T08:17:03;17.60;82.59
71082;SHT31;58740;50.672;18.690;2023-08-06T08:19:33;17.52;82.52
71082;SHT31;58740;50.672;18.690;2023-08-06T08:22:02;17.46;82.61
71082;SHT31;58740;50.672;18.690;2023-08-06T08:24:30;17.42;82.70
71082;SHT31;58740;50.672;18.690;2023-08-06T08:26:58;17.39;82.65
71082;SHT31;58740;50.672;18.690;2023-08-06T08:29:26;17.35;82.55
71082;SHT31;58740;50.672;18.690;2023-08-06T08:31:54;17.32;82.67
71082;SHT31;58740;50.672;18.690;2023-08-06T08:34:22;17.33;83.02
71082;SHT31;58740;50.672;18.690;2023-08-06T08:36:50;17.36;82.83
71082;SHT31;58740;50.672;18.690;2023-08-06T08:39:17;17.37;82.67
71082;SHT31;58740;50.672;18.690;2023-08-06T08:41:45;17.33;82.31
71082;SHT31;58740;50.672;18.690;2023-08-06T08:44:13;17.27;82.44
71082;SHT31;58740;50.672;18.690;2023-08-06T08:46:44;17.25;82.48
71082;SHT31;58740;50.672;18.690;2023-08-06T08:49:15;17.22;82.48
71082;SHT31;58740;50.672;18.690;2023-08-06T08:51:44;17.18;82.50
71082;SHT31;58740;50.672;18.690;2023-08-06T08:54:13;17.15;82.47
71082;SHT31;58740;50.672;18.690;2023-08-06T08:56:43;17.10;82.49
71082;SHT31;58740;50.672;18.690;2023-08-06T08:59:11;17.07;82.41
71082;SHT31;58740;50.672;18.690;2023-08-06T09:01:39;17.04;82.48
71082;SHT31;58740;50.672;18.690;2023-08-06T09:04:07;17.02;82.57
71082;SHT31;58740;50.672;18.690;2023-08-06T09:06:38;17.00;82.40
71082;SHT31;58740;50.672;18.690;2023-08-06T09:09:11;16.98;82.53
71082;SHT31;58740;50.672;18.690;2023-08-06T09:11:43;17.00;82.69
71082;SHT31;58740;50.672;18.690;2023-08-06T09:14:12;17.02;82.63
71082;SHT31;58740;50.672;18.690;2023-08-06T09:16:39;17.02;82.59
71082;SHT31;58740;50.672;18.690;2023-08-06T09:19:09;17.04;82.72
71082;SHT31;58740;50.672;18.690;2023-08-06T09:21:44;17.05;82.64
71082;SHT31;58740;50.672;18.690;2023-08-06T09:24:16;17.06;82.58
71082;SHT31;58740;50.672;18.690;2023-08-06T09:26:44;17.08;82.65
71082;SHT31;58740;50.672;18.690;2023-08-06T09:29:12;17.09;82.64
71082;SHT31;58740;50.672;18.690;2023-08-06T09:31:44;17.11;82.65
71082;SHT31;58740;50.672;18.690;2023-08-06T09:34:23;17.10;82.64
71082;SHT31;58740;50.672;18.690;2023-08-06T09:36:51;17.13;82.56
71082;SHT31;58740;50.672;18.690;2023-08-06T09:39:21;17.12;82.38
71082;SHT31;58740;50.672;18.690;2023-08-06T09:41:55;17.11;82.52
71082;SHT31;58740;50.672;18.690;2023-08-06T09:44:26;17.09;82.26
71082;SHT31;58740;50.672;18.690;2023-08-06T09:46:56;17.09;82.44
71082;SHT31;58740;50.672;18.690;2023-08-06T09:49:28;17.09;82.35
71082;SHT31;58740;50.672;18.690;2023-08-06T09:52:13;17.05;82.13
71082;SHT31;58740;50.672;18.690;2023-08-06T09:54:43;17.06;82.13
71082;SHT31;58740;50.672;18.690;2023-08-06T09:57:11;17.03;82.02
71082;SHT31;58740;50.672;18.690;2023-08-06T09:59:40;17.00;81.97
71082;SHT31;58740;50.672;18.690;2023-08-06T10:02:11;16.98;82.11
71082;SHT31;58740;50.672;18.690;2023-08-06T10:04:42;16.97;82.18
71082;SHT31;58740;50.672;18.690;2023-08-06T10:07:21;16.95;82.14
71082;SHT31;58740;50.672;18.690;2023-08-06T10:09:51;16.93;81.99
71082;SHT31;58740;50.672;18.690;2023-08-06T10:12:19;16.90;82.08
71082;SHT31;58740;50.672;18.690;2023-08-06T10:14:48;16.89;82.09
71082;SHT31;58740;50.672;18.690;2023-08-06T10:17:20;16.89;82.12
71082;SHT31;58740;50.672;18.690;2023-08-06T10:19:55;16.87;82.15
71082;SHT31;58740;50.672;18.690;2023-08-06T10:22:23;16.84;82.05
71082;SHT31;58740;50.672;18.690;2023-08-06T10:24:52;16.81;82.07
71082;SHT31;58740;50.672;18.690;2023-08-06T10:32:57;16.85;82.41
71082;SHT31;58740;50.672;18.690;2023-08-06T10:38:08;16.83;82.24
71082;SHT31;58740;50.672;18.690;2023-08-06T10:41:23;16.85;82.35
71082;SHT31;58740;50.672;18.690;2023-08-06T10:44:10;16.87;82.51
71082;SHT31;58740;50.672;18.690;2023-08-06T10:46:38;16.89;82.34
71082;SHT31;58740;50.672;18.690;2023-08-06T10:49:06;16.90;82.46
71082;SHT31;58740;50.672;18.690;2023-08-06T10:51:34;16.93;82.57
71082;SHT31;58740;50.672;18.690;2023-08-06T10:54:03;16.91;82.46
71082;SHT31;58740;50.672;18.690;2023-08-06T10:56:32;16.90;82.38
71082;SHT31;58740;50.672;18.690;2023-08-06T10:59:08;16.92;82.48
71082;SHT31;58740;50.672;18.690;2023-08-06T11:01:37;16.91;82.33
71082;SHT31;58740;50.672;18.690;2023-08-06T11:04:06;16.90;82.40
71082;SHT31;58740;50.672;18.690;2023-08-06T11:06:34;16.88;82.39
71082;SHT31;58740;50.672;18.690;2023-08-06T11:09:02;16.88;82.39
71082;SHT31;58740;50.672;18.690;2023-08-06T11:11:30;16.86;82.31
71082;SHT31;58740;50.672;18.690;2023-08-06T11:13:57;16.86;82.44
71082;SHT31;58740;50.672;18.690;2023-08-06T11:16:25;16.86;82.45
71082;SHT31;58740;50.672;18.690;2023-08-06T11:18:54;16.87;82.42
71082;SHT31;58740;50.672;18.690;2023-08-06T11:21:24;16.86;82.33
71082;SHT31;58740;50.672;18.690;2023-08-06T11:23:53;16.86;82.40
71082;SHT31;58740;50.672;18.690;2023-08-06T11:26:21;16.86;82.42
71082;SHT31;58740;50.672;18.690;2023-08-06T11:28:51;16.85;82.41
71082;SHT31;58740;50.672;18.690;2023-08-06T11:31:19;16.84;82.45
71082;SHT31;58740;50.672;18.690;2023-08-06T11:33:52;16.85;82.53
71082;SHT31;58740;50.672;18.690;2023-08-06T11:36:34;16.84;82.46
71082;SHT31;58740;50.672;18.690;2023-08-06T11:39:07;16.80;82.43
71082;SHT31;58740;50.672;18.690;2023-08-06T11:41:36;16.80;82.44
71082;SHT31;58740;50.672;18.690;2023-08-06T11:44:05;16.81;82.39
71082;SHT31;58740;50.672;18.690;2023-08-06T11:46:52;16.79;82.29
71082;SHT31;58740;50.672;18.690;2023-08-06T11:52:21;16.80;82.53
71082;SHT31;58740;50.672;18.690;2023-08-06T11:57:39;16.83;82.62
71082;SHT31;58740;50.672;18.690;2023-08-06T12:00:11;16.84;82.70
71082;SHT31;58740;50.672;18.690;2023-08-06T12:02:41;16.83;82.65
71082;SHT31;58740;50.672;18.690;2023-08-06T12:07:53;16.78;82.63
71082;SHT31;58740;50.672;18.690;2023-08-06T12:10:25;16.78;82.81
71082;SHT31;58740;50.672;18.690;2023-08-06T12:12:54;16.78;82.64
71082;SHT31;58740;50.672;18.690;2023-08-06T12:15:23;16.75;82.60
71082;SHT31;58740;50.672;18.690;2023-08-06T12:17:51;16.75;82.79
71082;SHT31;58740;50.672;18.690;2023-08-06T12:20:19;16.74;82.81
71082;SHT31;58740;50.672;18.690;2023-08-06T12:22:47;16.75;82.88
71082;SHT31;58740;50.672;18.690;2023-08-06T12:25:15;16.77;82.85
71082;SHT31;58740;50.672;18.690;2023-08-06T12:27:43;16.77;82.88
71082;SHT31;58740;50.672;18.690;2023-08-06T12:30:13;16.79;83.09
71082;SHT31;58740;50.672;18.690;2023-08-06T12:32:41;16.83;83.07
71082;SHT31;58740;50.672;18.690;2023-08-06T12:35:08;16.84;83.01
71082;SHT31;58740;50.672;18.690;2023-08-06T12:37:36;16.87;83.02
71082;SHT31;58740;50.672;18.690;2023-08-06T12:40:06;16.91;83.02
71082;SHT31;58740;50.672;18.690;2023-08-06T12:42:54;16.93;83.04
71082;SHT31;58740;50.672;18.690;2023-08-06T12:45:22;16.94;83.17
71082;SHT31;58740;50.672;18.690;2023-08-06T12:47:49;16.95;83.15
71082;SHT31;58740;50.672;18.690;2023-08-06T12:50:18;16.99;83.52
71082;SHT31;58740;50.672;18.690;2023-08-06T12:52:45;17.04;83.39
71082;SHT31;58740;50.672;18.690;2023-08-06T12:55:13;17.05;83.13
71082;SHT31;58740;50.672;18.690;2023-08-06T12:57:41;17.04;83.09
71082;SHT31;58740;50.672;18.690;2023-08-06T13:00:11;17.02;83.05
71082;SHT31;58740;50.672;18.690;2023-08-06T13:02:39;17.04;83.00
71082;SHT31;58740;50.672;18.690;2023-08-06T13:05:07;17.04;82.94
71082;SHT31;58740;50.672;18.690;2023-08-06T13:07:37;17.06;83.12
71082;SHT31;58740;50.672;18.690;2023-08-06T13:10:05;17.06;83.04
71082;SHT31;58740;50.672;18.690;2023-08-06T13:12:33;17.06;82.92
71082;SHT31;58740;50.672;18.690;2023-08-06T13:15:01;17.06;82.98
71082;SHT31;58740;50.672;18.690;2023-08-06T13:17:29;17.08;83.09
71082;SHT31;58740;50.672;18.690;2023-08-06T13:19:56;17.12;83.16
71082;SHT31;58740;50.672;18.690;2023-08-06T13:22:25;17.13;82.87
71082;SHT31;58740;50.672;18.690;2023-08-06T13:24:52;17.11;82.89
71082;SHT31;58740;50.672;18.690;2023-08-06T13:27:20;17.12;83.10
71082;SHT31;58740;50.672;18.690;2023-08-06T13:29:47;17.12;82.94
71082;SHT31;58740;50.672;18.690;2023-08-06T13:32:15;17.13;82.78
71082;SHT31;58740;50.672;18.690;2023-08-06T13:34:43;17.12;82.88
71082;SHT31;58740;50.672;18.690;2023-08-06T13:37:11;17.14;83.21
71082;SHT31;58740;50.672;18.690;2023-08-06T13:39:38;17.17;83.21
71082;SHT31;58740;50.672;18.690;2023-08-06T13:42:07;17.20;83.18
71082;SHT31;58740;50.672;18.690;2023-08-06T13:44:34;17.21;83.27
71082;SHT31;58740;50.672;18.690;2023-08-06T13:47:03;17.23;83.29
71082;SHT31;58740;50.672;18.690;2023-08-06T13:49:31;17.25;83.21
71082;SHT31;58740;50.672;18.690;2023-08-06T13:51:58;17.27;83.18
71082;SHT31;58740;50.672;18.690;2023-08-06T13:54:46;17.32;83.30
71082;SHT31;58740;50.672;18.690;2023-08-06T13:57:14;17.35;83.20
71082;SHT31;58740;50.672;18.690;2023-08-06T13:59:41;17.37;83.12
71082;SHT31;58740;50.672;18.690;2023-08-06T14:02:11;17.40;83.31
71082;SHT31;58740;50.672;18.690;2023-08-06T14:04:39;17.44;83.31
71082;SHT31;58740;50.672;18.690;2023-08-06T14:07:07;17.45;83.08
71082;SHT31;58740;50.672;18.690;2023-08-06T14:09:35;17.45;83.01
71082;SHT31;58740;50.672;18.690;2023-08-06T14:12:03;17.45;83.10
71082;SHT31;58740;50.672;18.690;2023-08-06T14:14:31;17.45;83.07
71082;SHT31;58740;50.672;18.690;2023-08-06T14:16:59;17.44;82.94
71082;SHT31;58740;50.672;18.690;2023-08-06T14:19:27;17.43;82.78
71082;SHT31;58740;50.672;18.690;2023-08-06T14:21:56;17.41;82.70
71082;SHT31;58740;50.672;18.690;2023-08-06T14:24:24;17.41;82.61
71082;SHT31;58740;50.672;18.690;2023-08-06T14:26:52;17.39;82.59
71082;SHT31;58740;50.672;18.690;2023-08-06T14:29:20;17.38;82.73
71082;SHT31;58740;50.672;18.690;2023-08-06T14:31:49;17.36;82.57
71082;SHT31;58740;50.672;18.690;2023-08-06T14:34:17;17.32;82.61
71082;SHT31;58740;50.672;18.690;2023-08-06T14:36:45;17.33;82.84
71082;SHT31;58740;50.672;18.690;2023-08-06T14:39:13;17.34;82.81
71082;SHT31;58740;50.672;18.690;2023-08-06T14:41:40;17.37;82.77
71082;SHT31;58740;50.672;18.690;2023-08-06T14:44:08;17.39;82.80
71082;SHT31;58740;50.672;18.690;2023-08-06T14:46:36;17.41;83.03
71082;SHT31;58740;50.672;18.690;2023-08-06T14:49:04;17.40;82.64
71082;SHT31;58740;50.672;18.690;2023-08-06T14:51:31;17.37;82.37
71082;SHT31;58740;50.672;18.690;2023-08-06T14:54:01;17.32;82.36
71082;SHT31;58740;50.672;18.690;2023-08-06T14:56:29;17.30;82.35
71082;SHT31;58740;50.672;18.690;2023-08-06T14:58:57;17.29;82.47
71082;SHT31;58740;50.672;18.690;2023-08-06T15:01:25;17.31;82.44
71082;SHT31;58740;50.672;18.690;2023-08-06T15:03:52;17.33;82.40
71082;SHT31;58740;50.672;18.690;2023-08-06T15:06:20;17.34;82.34
71082;SHT31;58740;50.672;18.690;2023-08-06T15:08:48;17.38;82.45
71082;SHT31;58740;50.672;18.690;2023-08-06T15:11:15;17.40;82.30
71082;SHT31;58740;50.672;18.690;2023-08-06T15:13:43;17.39;82.22
71082;SHT31;58740;50.672;18.690;2023-08-06T15:16:11;17.36;82.21
71082;SHT31;58740;50.672;18.690;2023-08-06T15:18:39;17.31;82.29
71082;SHT31;58740;50.672;18.690;2023-08-06T15:21:07;17.28;82.20
71082;SHT31;58740;50.672;18.690;2023-08-06T15:23:34;17.25;82.16
71082;SHT31;58740;50.672;18.690;2023-08-06T15:26:03;17.20;82.05
71082;SHT31;58740;50.672;18.690;2023-08-06T15:28:31;17.16;82.14
71082;SHT31;58740;50.672;18.690;2023-08-06T15:30:59;17.14;82.28
71082;SHT31;58740;50.672;18.690;2023-08-06T15:33:31;17.12;82.13
71082;SHT31;58740;50.672;18.690;2023-08-06T15:35:59;17.08;82.14
71082;SHT31;58740;50.672;18.690;2023-08-06T15:38:27;17.05;82.29
71082;SHT31;58740;50.672;18.690;2023-08-06T15:40:55;17.03;82.35
71082;SHT31;58740;50.672;18.690;2023-08-06T15:43:23;17.01;82.39
71082;SHT31;58740;50.672;18.690;2023-08-06T15:45:51;17.00;82.26